Terminal Aerodrome Forecast
Issued by NWS

Home | Current Version | Previous Version | Text Only | Print | Product List | Glossary On
Versions: 1 2 3 4 5 6 7 8 9 10 11 12 13 14
000
FTAK31 PAJN 302321
TAFAKT
TAF
PAKT 302321Z 0100/0124 31009KT P6SM -SHRA FEW035 BKN050 OVC070
     FM010300 32005KT P6SM SCT035 BKN060
     FM010800 32011KT P6SM FEW060
      AMD LTD TO CLD VIS AND WIND 0106/0115=

USA.gov is the U.S. government's official web portal to all federal, state and local government web resources and services.